Time,TemperatureF,DewpointF,PressureIn,WindDirection,WindDirectionDegrees,WindSpeedMPH,WindSpeedGustMPH,Humidity,HourlyPrecipIn,Conditions,Clouds,dailyrainin,SoftwareType,DateUTC
2013-07-16 00:01:00,72.3,71.0,30.05,South,190,1.0,1.0,96,0.00,,,0.15,weatherlink.com 1.10,2013-07-16 05:01:00,
2013-07-16 00:16:00,72.2,71.0,30.05,South,190,0.0,0.0,95,0.00,,,0.00,weatherlink.com 1.10,2013-07-16 05:16:00,
2013-07-16 00:31:00,72.2,71.0,30.05,South,190,0.0,0.0,96,0.00,,,0.00,weatherlink.com 1.10,2013-07-16 05:31:00,
2013-07-16 00:46:00,72.1,71.0,30.05,South,190,0.0,0.0,96,0.00,,,0.00,weatherlink.com 1.10,2013-07-16 05:46:00,
2013-07-16 01:01:00,72.1,71.0,30.06,South,190,0.0,0.0,96,0.00,,,0.00,weatherlink.com 1.10,2013-07-16 06:01:00,
2013-07-16 01:16:00,72.2,71.0,30.05,South,190,0.0,1.0,96,0.00,,,0.00,weatherlink.com 1.10,2013-07-16 06:16:00,
2013-07-16 01:31:00,72.2,71.0,30.05,South,190,0.0,1.0,96,0.00,,,0.00,weatherlink.com 1.10,2013-07-16 06:31:00,
2013-07-16 01:46:00,72.1,71.0,30.05,South,190,0.0,1.0,96,0.00,,,0.00,weatherlink.com 1.10,2013-07-16 06:46:00,
2013-07-16 02:01:00,72.0,71.0,30.05,South,190,0.0,1.0,96,0.00,,,0.00,weatherlink.com 1.10,2013-07-16 07:01:00,
2013-07-16 02:16:00,71.9,71.0,30.05,South,190,0.0,1.0,96,0.00,,,0.00,weatherlink.com 1.10,2013-07-16 07:16:00,
2013-07-16 02:31:00,71.8,71.0,30.05,South,190,0.0,1.0,96,0.00,,,0.00,weatherlink.com 1.10,2013-07-16 07:31:00,
2013-07-16 02:46:00,71.9,71.0,30.05,South,190,0.0,0.0,96,0.00,,,0.00,weatherlink.com 1.10,2013-07-16 07:46:00,
2013-07-16 03:01:00,72.2,71.0,30.04,South,190,0.0,1.0,96,0.00,,,0.00,weatherlink.com 1.10,2013-07-16 08:01:00,
2013-07-16 03:16:00,72.3,71.0,30.04,South,190,0.0,0.0,96,0.00,,,0.00,weatherlink.com 1.10,2013-07-16 08:16:00,
2013-07-16 03:31:00,72.2,71.0,30.04,South,190,0.0,1.0,96,0.00,,,0.00,weatherlink.com 1.10,2013-07-16 08:31:00,
2013-07-16 03:46:00,72.2,71.0,30.04,South,190,0.0,1.0,96,0.00,,,0.00,weatherlink.com 1.10,2013-07-16 08:46:00,
2013-07-16 04:01:00,72.2,71.0,30.04,South,190,0.0,1.0,96,0.00,,,0.00,weatherlink.com 1.10,2013-07-16 09:01:00,
2013-07-16 04:16:00,72.1,71.0,30.03,South,190,0.0,1.0,96,0.00,,,0.00,weatherlink.com 1.10,2013-07-16 09:16:00,
2013-07-16 04:31:00,72.1,71.0,30.03,South,190,1.0,2.0,96,0.00,,,0.00,weatherlink.com 1.10,2013-07-16 09:31:00,
2013-07-16 04:46:00,71.9,71.0,30.03,South,190,0.0,0.0,96,0.00,,,0.00,weatherlink.com 1.10,2013-07-16 09:46:00,
2013-07-16 05:01:00,71.7,71.0,30.03,South,190,0.0,0.0,96,0.00,,,0.00,weatherlink.com 1.10,2013-07-16 10:01:00,
2013-07-16 05:16:00,71.6,70.0,30.04,South,190,0.0,0.0,96,0.00,,,0.00,weatherlink.com 1.10,2013-07-16 10:16:00,
2013-07-16 05:31:00,71.4,70.0,30.04,South,190,0.0,0.0,96,0.00,,,0.00,weatherlink.com 1.10,2013-07-16 10:31:00,
2013-07-16 05:46:00,71.7,71.0,30.05,South,190,0.0,1.0,97,0.00,,,0.00,weatherlink.com 1.10,2013-07-16 10:46:00,
2013-07-16 06:01:00,72.1,71.0,30.06,ESE,113,0.0,2.0,97,0.01,,,0.01,weatherlink.com 1.10,2013-07-16 11:01:00,
2013-07-16 06:16:00,72.3,71.0,30.06,North,5,0.0,3.0,97,0.01,,,0.01,weatherlink.com 1.10,2013-07-16 11:16:00,
2013-07-16 06:31:00,72.6,72.0,30.06,NNE,19,1.0,3.0,97,0.01,,,0.01,weatherlink.com 1.10,2013-07-16 11:31:00,
2013-07-16 06:46:00,72.8,72.0,30.07,NNE,26,0.0,5.0,97,0.01,,,0.01,weatherlink.com 1.10,2013-07-16 11:46:00,
2013-07-16 07:01:00,72.9,72.0,30.07,NNE,26,0.0,3.0,97,0.00,,,0.01,weatherlink.com 1.10,2013-07-16 12:01:00,
2013-07-16 07:16:00,73.1,72.0,30.07,NNE,16,0.0,4.0,97,0.00,,,0.01,weatherlink.com 1.10,2013-07-16 12:16:00,
2013-07-16 07:31:00,73.6,73.0,30.08,ENE,78,3.0,6.0,97,0.00,,,0.01,weatherlink.com 1.10,2013-07-16 12:31:00,
2013-07-16 07:46:00,74.0,73.0,30.08,North,10,1.0,6.0,97,0.00,,,0.01,weatherlink.com 1.10,2013-07-16 12:46:00,
2013-07-16 08:01:00,74.6,74.0,30.08,NNW,339,0.0,6.0,97,0.00,,,0.01,weatherlink.com 1.10,2013-07-16 13:01:00,
2013-07-16 08:16:00,75.6,75.0,30.08,North,355,0.0,5.0,97,0.00,,,0.01,weatherlink.com 1.10,2013-07-16 13:16:00,
2013-07-16 08:31:00,76.9,75.0,30.08,NNW,347,5.0,7.0,95,0.00,,,0.01,weatherlink.com 1.10,2013-07-16 13:31:00,
2013-07-16 08:46:00,77.6,75.0,30.08,NNW,338,5.0,8.0,91,0.00,,,0.01,weatherlink.com 1.10,2013-07-16 13:46:00,
2013-07-16 09:01:00,78.1,75.0,30.09,East,80,0.0,6.0,90,0.00,,,0.01,weatherlink.com 1.10,2013-07-16 14:01:00,
2013-07-16 09:16:00,78.9,75.0,30.09,NNW,338,4.0,10.0,88,0.00,,,0.01,weatherlink.com 1.10,2013-07-16 14:16:00,
2013-07-16 09:31:00,79.6,76.0,30.09,NNW,342,0.0,6.0,87,0.00,,,0.01,weatherlink.com 1.10,2013-07-16 14:31:00,
2013-07-16 09:47:00,79.8,75.0,30.09,North,5,2.0,8.0,86,0.00,,,0.01,weatherlink.com 1.10,2013-07-16 14:47:00,
2013-07-16 10:02:00,80.8,76.0,30.09,NNW,336,3.0,7.0,85,0.00,,,0.01,weatherlink.com 1.10,2013-07-16 15:02:00,
2013-07-16 10:17:00,81.5,76.0,30.10,ESE,121,1.0,7.0,82,0.00,,,0.01,weatherlink.com 1.10,2013-07-16 15:17:00,
2013-07-16 10:32:00,81.5,76.0,30.10,NE,55,0.0,5.0,83,0.00,,,0.01,weatherlink.com 1.10,2013-07-16 15:32:00,
2013-07-16 10:47:00,81.8,76.0,30.10,SSE,157,1.0,8.0,83,0.00,,,0.01,weatherlink.com 1.10,2013-07-16 15:47:00,
2013-07-16 11:02:00,82.4,76.0,30.10,North,5,1.0,8.0,80,0.00,,,0.01,weatherlink.com 1.10,2013-07-16 16:02:00,
2013-07-16 11:17:00,83.1,76.0,30.10,ENE,58,1.0,13.0,78,0.00,,,0.01,weatherlink.com 1.10,2013-07-16 16:17:00,
2013-07-16 11:32:00,83.4,76.0,30.10,North,360,4.0,5.0,79,0.00,,,0.01,weatherlink.com 1.10,2013-07-16 16:32:00,
2013-07-16 11:47:00,83.2,76.0,30.10,SE,126,2.0,5.0,78,0.00,,,0.01,weatherlink.com 1.10,2013-07-16 16:47:00,
2013-07-16 12:02:00,83.8,76.0,30.10,NNE,33,2.0,6.0,76,0.00,,,0.01,weatherlink.com 1.10,2013-07-16 17:02:00,
2013-07-16 12:17:00,83.5,75.0,30.09,SSE,163,2.0,5.0,75,0.00,,,0.01,weatherlink.com 1.10,2013-07-16 17:17:00,
2013-07-16 12:32:00,84.2,76.0,30.09,North,351,3.0,5.0,75,0.00,,,0.01,weatherlink.com 1.10,2013-07-16 17:32:00,
2013-07-16 12:47:00,84.4,75.0,30.09,NNW,341,3.0,7.0,74,0.00,,,0.01,weatherlink.com 1.10,2013-07-16 17:47:00,
2013-07-16 13:02:00,84.8,75.0,30.09,NNE,15,3.0,12.0,73,0.00,,,0.01,weatherlink.com 1.10,2013-07-16 18:02:00,
2013-07-16 13:17:00,84.9,75.0,30.08,North,360,3.0,6.0,72,0.00,,,0.01,weatherlink.com 1.10,2013-07-16 18:17:00,
2013-07-16 13:32:00,85.8,75.0,30.07,NNW,338,3.0,5.0,71,0.00,,,0.01,weatherlink.com 1.10,2013-07-16 18:32:00,
2013-07-16 13:47:00,86.1,75.0,30.07,NNE,24,3.0,7.0,70,0.00,,,0.01,weatherlink.com 1.10,2013-07-16 18:47:00,
2013-07-16 14:02:00,87.0,75.0,30.06,SW,220,2.0,6.0,68,0.00,,,0.01,weatherlink.com 1.10,2013-07-16 19:02:00,
2013-07-16 14:17:00,87.4,76.0,30.06,NNW,336,4.0,7.0,68,0.00,,,0.01,weatherlink.com 1.10,2013-07-16 19:17:00,
2013-07-16 14:32:00,89.6,76.0,30.05,NNE,13,2.0,9.0,65,0.00,,,0.01,weatherlink.com 1.10,2013-07-16 19:32:00,
2013-07-16 14:47:00,88.8,75.0,30.05,ENE,61,1.0,10.0,63,0.00,,,0.01,weatherlink.com 1.10,2013-07-16 19:47:00,
2013-07-16 15:02:00,88.8,74.0,30.04,NNE,32,2.0,8.0,62,0.00,,,0.01,weatherlink.com 1.10,2013-07-16 20:02:00,
2013-07-16 15:17:00,89.6,74.0,30.02,NNW,341,5.0,8.0,61,0.00,,,0.01,weatherlink.com 1.10,2013-07-16 20:17:00,
2013-07-16 15:32:00,90.8,73.0,30.03,North,11,4.0,11.0,56,0.00,,,0.01,weatherlink.com 1.10,2013-07-16 20:32:00,
2013-07-16 15:47:00,90.8,74.0,30.02,NE,40,6.0,8.0,58,0.00,,,0.01,weatherlink.com 1.10,2013-07-16 20:47:00,
2013-07-16 16:17:00,92.7,71.0,30.02,SE,146,4.0,12.0,50,0.00,,,0.01,weatherlink.com 1.10,2013-07-16 21:17:00,
2013-07-16 16:32:00,92.9,71.0,30.01,South,186,1.0,9.0,49,0.00,,,0.01,weatherlink.com 1.10,2013-07-16 21:32:00,
2013-07-16 16:47:00,93.0,72.0,30.01,WNW,290,4.0,7.0,50,0.00,,,0.01,weatherlink.com 1.10,2013-07-16 21:47:00,
2013-07-16 17:02:00,88.3,75.0,30.04,NE,43,4.0,18.0,65,0.02,,,0.03,weatherlink.com 1.10,2013-07-16 22:02:00,
2013-07-16 17:17:00,83.3,75.0,30.04,SSE,163,0.0,3.0,75,0.03,,,0.04,weatherlink.com 1.10,2013-07-16 22:17:00,
2013-07-16 17:33:00,81.4,75.0,30.03,SSE,163,0.0,1.0,81,0.03,,,0.04,weatherlink.com 1.10,2013-07-16 22:33:00,
2013-07-16 17:47:00,80.1,75.0,30.02,SSE,163,0.0,1.0,85,0.03,,,0.04,weatherlink.com 1.10,2013-07-16 22:47:00,
2013-07-16 18:02:00,79.3,75.0,30.04,SSE,163,1.0,3.0,86,0.01,,,0.04,weatherlink.com 1.10,2013-07-16 23:02:00,
2013-07-16 18:17:00,78.6,75.0,30.04,SSE,163,0.0,3.0,88,0.00,,,0.04,weatherlink.com 1.10,2013-07-16 23:17:00,
2013-07-16 18:32:00,78.3,75.0,30.04,SSE,163,0.0,0.0,89,0.00,,,0.04,weatherlink.com 1.10,2013-07-16 23:32:00,
2013-07-16 18:47:00,78.1,75.0,30.04,SSE,163,0.0,0.0,90,0.00,,,0.04,weatherlink.com 1.10,2013-07-16 23:47:00,
2013-07-16 19:02:00,78.1,75.0,30.05,SSE,163,0.0,0.0,91,0.00,,,0.04,weatherlink.com 1.10,2013-07-17 00:02:00,
2013-07-16 19:17:00,77.9,75.0,30.06,SSE,163,0.0,0.0,91,0.00,,,0.04,weatherlink.com 1.10,2013-07-17 00:17:00,
2013-07-16 19:33:00,77.7,75.0,30.06,SSE,163,0.0,1.0,91,0.00,,,0.04,weatherlink.com 1.10,2013-07-17 00:33:00,
2013-07-16 19:48:00,77.6,75.0,30.06,WSW,250,0.0,4.0,92,0.07,,,0.11,weatherlink.com 1.10,2013-07-17 00:48:00,
2013-07-16 20:03:00,77.3,75.0,30.07,SW,214,0.0,2.0,92,0.07,,,0.11,weatherlink.com 1.10,2013-07-17 01:03:00,
2013-07-16 20:18:00,77.0,75.0,30.08,SW,214,0.0,0.0,92,0.07,,,0.11,weatherlink.com 1.10,2013-07-17 01:18:00,
2013-07-16 20:33:00,76.7,75.0,30.08,SW,214,0.0,0.0,93,0.07,,,0.11,weatherlink.com 1.10,2013-07-17 01:33:00,
2013-07-16 20:48:00,76.6,75.0,30.08,SW,214,0.0,0.0,93,0.00,,,0.11,weatherlink.com 1.10,2013-07-17 01:48:00,
2013-07-16 21:03:00,76.5,75.0,30.09,SW,214,0.0,0.0,94,0.00,,,0.11,weatherlink.com 1.10,2013-07-17 02:03:00,
2013-07-16 21:18:00,76.3,75.0,30.09,SW,214,0.0,1.0,94,0.00,,,0.11,weatherlink.com 1.10,2013-07-17 02:18:00,
2013-07-16 21:33:00,76.2,74.0,30.10,SW,214,0.0,1.0,94,0.00,,,0.11,weatherlink.com 1.10,2013-07-17 02:33:00,
2013-07-16 21:48:00,76.2,74.0,30.10,SW,214,0.0,1.0,94,0.00,,,0.11,weatherlink.com 1.10,2013-07-17 02:48:00,
2013-07-16 22:03:00,76.0,75.0,30.11,SW,214,0.0,1.0,95,0.00,,,0.11,weatherlink.com 1.10,2013-07-17 03:03:00,
2013-07-16 22:18:00,75.9,74.0,30.12,SW,214,0.0,1.0,95,0.00,,,0.11,weatherlink.com 1.10,2013-07-17 03:18:00,
2013-07-16 22:33:00,75.8,74.0,30.12,SW,214,0.0,1.0,95,0.00,,,0.11,weatherlink.com 1.10,2013-07-17 03:33:00,
2013-07-16 22:48:00,75.7,74.0,30.13,SW,214,0.0,0.0,95,0.00,,,0.11,weatherlink.com 1.10,2013-07-17 03:48:00,
2013-07-16 23:03:00,75.6,74.0,30.13,SW,214,0.0,0.0,95,0.00,,,0.11,weatherlink.com 1.10,2013-07-17 04:03:00,
2013-07-16 23:18:00,75.5,74.0,30.12,SW,214,0.0,2.0,95,0.00,,,0.11,weatherlink.com 1.10,2013-07-17 04:18:00,
2013-07-16 23:33:00,75.4,74.0,30.12,SW,214,0.0,0.0,95,0.00,,,0.11,weatherlink.com 1.10,2013-07-17 04:33:00,
2013-07-16 23:48:00,75.3,74.0,30.12,SW,214,1.0,1.0,95,0.00,,,0.11,weatherlink.com 1.10,2013-07-17 04:48:00,